| time (UTC) | temp F | wind direction | speed knots | gust knots | rain 1hr in | rain 24hr in | rain mn in | humidity % | barometer mb |
| 20260905223515 | 79 | 0.0 | 0.0 | 0.00 | 0.94 | 0.91 | 89 | 1011.9 | |
| 20260905222536 | 79 | 0.0 | 0.0 | 0.00 | 0.94 | 0.91 | 92 | 1012.0 | |
| 20260905221515 | 79 | 0.0 | 0.0 | 0.00 | 0.94 | 0.91 | 92 | 1011.9 | |
| 20260905220515 | 79 | 0.0 | 0.0 | 0.00 | 1.03 | 0.91 | 91 | 1011.7 | |
| 20260905215535 | 80 | 0.0 | 0.0 | 0.00 | 1.16 | 0.91 | 90 | 1011.5 | |
| 20260905214515 | 80 | 0.0 | 0.0 | 0.00 | 1.25 | 0.91 | 87 | 1011.6 | |
| 20260905213515 | 80 | 0.0 | 1.7 | 0.00 | 1.26 | 0.91 | 86 | 1011.5 | |
| 20260905212515 | 80 | 0.0 | 0.9 | 0.00 | 1.26 | 0.91 | 88 | 1011.6 | |
| 20260905211536 | 81 | 0.0 | 0.9 | 0.00 | 1.30 | 0.91 | 91 | 1011.6 | |
| 20260905210515 | 79 | 0.0 | 0.0 | 0.00 | 1.30 | 0.91 | 92 | 1011.8 | |
| 20260905205515 | 78 | 0.0 | 0.9 | 0.00 | 1.30 | 0.91 | 95 | 1011.8 | |
| 20260905204515 | 77 | 0.0 | 1.7 | 0.00 | 1.30 | 0.91 | 96 | 1011.8 | |
| 20260905203515 | 77 | 0.0 | 0.0 | 0.00 | 1.30 | 0.91 | 99 | 1011.8 | |
| 20260905202515 | 76 | 0.0 | 0.9 | 0.00 | 1.30 | 0.91 | 100 | 1011.8 | |
| 20260905201515 | 75 | 0.0 | 0.9 | 0.00 | 1.30 | 0.91 | 100 | 1011.6 | |
| 20260905200515 | 75 | 0.0 | 0.9 | 0.00 | 1.30 | 0.91 | 100 | 1011.4 | |
| 20260905195515 | 74 | 0.0 | 0.0 | 0.00 | 1.30 | 0.91 | 100 | 1011.6 | |
| 20260905194515 | 74 | 0.0 | 0.9 | 0.00 | 1.30 | 0.91 | 100 | 1011.7 | |
| 20260905193516 | 74 | 0.0 | 0.9 | 0.01 | 1.30 | 0.91 | 100 | 1012.1 | |
| 20260905192535 | 74 | 0.0 | 0.9 | 0.01 | 1.30 | 0.91 | 100 | 1012.4 | |
| 20260905191515 | 74 | 0.0 | 0.9 | 0.01 | 1.30 | 0.91 | 100 | 1012.6 | |
| 20260905190515 | 74 | 0.0 | 0.0 | 0.01 | 1.30 | 0.91 | 100 | 1012.6 | |
| 20260905185515 | 74 | 0.0 | 0.0 | 0.01 | 1.30 | 0.91 | 100 | 1013.0 | |
| 20260905184515 | 74 | 0.0 | 0.0 | 0.01 | 1.30 | 0.91 | 100 | 1012.9 | |
| 20260905183515 | 74 | 0.0 | 0.0 | 0.00 | 1.29 | 0.90 | 100 | 1012.6 | |
| 20260905182515 | 73 | 0.0 | 0.0 | 0.00 | 1.29 | 0.90 | 100 | 1012.7 | |
| 20260905181517 | 73 | 0.0 | 0.9 | 0.00 | 1.29 | 0.90 | 100 | 1012.5 | |
| 20260905180517 | 73 | 90 | 1.7 | 5.2 | 0.00 | 1.29 | 0.90 | 100 | 1012.4 |
| 20260905175517 | 74 | 113 | 0.9 | 4.3 | 0.00 | 1.29 | 0.90 | 100 | 1012.7 |
| 20260905174517 | 73 | 0.0 | 1.7 | 0.01 | 1.29 | 0.90 | 100 | 1012.6 | |
| 20260905173557 | 73 | 0.0 | 0.9 | 0.03 | 1.29 | 0.90 | 100 | 1013.0 | |
| 20260905172517 | 72 | 0.0 | 0.0 | 0.46 | 1.29 | 0.90 | 100 | 1012.9 | |
| 20260905171537 | 71 | 0.0 | 0.0 | 0.85 | 1.29 | 0.90 | 100 | 1012.9 | |
| 20260905170517 | 71 | 0.0 | 0.0 | 0.89 | 1.29 | 0.90 | 99 | 1013.4 | |
| 20260905165517 | 71 | 0.0 | 0.9 | 0.89 | 1.29 | 0.90 | 99 | 1014.1 | |
| 20260905164517 | 71 | 0.0 | 1.7 | 0.88 | 1.28 | 0.89 | 98 | 1014.4 | |
| 20260905163517 | 72 | 45 | 0.9 | 3.5 | 0.86 | 1.26 | 0.87 | 96 | 1014.7 |
| 20260905162517 | 76 | 45 | 2.6 | 9.6 | 0.43 | 0.83 | 0.44 | 94 | 1014.7 |
| 20260905161517 | 78 | 0.0 | 0.9 | 0.04 | 0.44 | 0.05 | 93 | 1014.2 | |
| 20260905160516 | 79 | 0.0 | 0.9 | 0.00 | 0.40 | 0.01 | 92 | 1013.9 | |
| 20260905155517 | 80 | 0.0 | 1.7 | 0.00 | 0.40 | 0.01 | 91 | 1013.4 | |
| 20260905154517 | 80 | 0.0 | 1.7 | 0.00 | 0.40 | 0.01 | 93 | 1013.3 | |
| 20260905153517 | 80 | 0.0 | 0.9 | 0.00 | 0.40 | 0.01 | 92 | 1013.3 | |
| 20260905152517 | 79 | 0.0 | 0.9 | 0.00 | 0.40 | 0.01 | 93 | 1013.3 | |
| 20260905151517 | 79 | 0.0 | 0.9 | 0.00 | 0.40 | 0.01 | 94 | 1013.5 | |
| 20260905150517 | 79 | 0.0 | 0.9 | 0.00 | 0.40 | 0.01 | 95 | 1013.5 | |
| 20260905145517 | 78 | 0.0 | 0.9 | 0.00 | 0.40 | 0.01 | 98 | 1013.5 | |
| 20260905144516 | 79 | 45 | 0.9 | 1.7 | 0.00 | 0.40 | 0.01 | 100 | 1013.4 |
| 20260905143537 | 79 | 0 | 0.9 | 1.7 | 0.00 | 0.40 | 0.01 | 100 | 1013.3 |
| 20260905142517 | 78 | 45 | 0.9 | 1.7 | 0.00 | 0.40 | 0.01 | 100 | 1013.3 |
| 20260905141517 | 78 | 0.0 | 1.7 | 0.00 | 0.40 | 0.01 | 100 | 1013.2 | |
| 20260905140517 | 77 | 0.0 | 0.9 | 0.00 | 0.40 | 0.01 | 100 | 1013.0 | |
| 20260905135517 | 76 | 45 | 0.9 | 1.7 | 0.00 | 0.40 | 0.01 | 100 | 1012.8 |
| 20260905134557 | 76 | 0.0 | 0.9 | 0.00 | 0.40 | 0.01 | 100 | 1012.9 | |
| 20260905133517 | 76 | 0.0 | 0.9 | 0.00 | 0.40 | 0.01 | 100 | 1012.8 | |
| 20260905132517 | 76 | 0.0 | 0.0 | 0.00 | 0.40 | 0.01 | 100 | 1012.7 | |
| 20260905131517 | 76 | 0.0 | 0.0 | 0.00 | 0.40 | 0.01 | 100 | 1012.8 | |
| 20260905130517 | 74 | 0.0 | 0.0 | 0.00 | 0.40 | 0.01 | 100 | 1012.8 | |
| 20260905125517 | 74 | 0.0 | 0.0 | 0.00 | 0.40 | 0.01 | 100 | 1012.5 | |
| 20260905124537 | 72 | 0.0 | 0.0 | 0.00 | 0.40 | 0.01 | 100 | 1012.5 | |
| 20260905123516 | 72 | 0.0 | 0.0 | 0.00 | 0.40 | 0.01 | 100 | 1012.7 | |
| 20260905122517 | 71 | 0.0 | 0.0 | 0.00 | 0.40 | 0.01 | 100 | 1012.7 | |
| 20260905121517 | 70 | 0.0 | 0.0 | 0.00 | 0.40 | 0.01 | 100 | 1012.7 | |
| 20260905120516 | 69 | 0.0 | 0.0 | 0.00 | 0.40 | 0.01 | 100 | 1012.6 | |
| 20260905115517 | 68 | 0.0 | 0.0 | 0.00 | 0.40 | 0.01 | 100 | 1012.5 | |
| 20260905114516 | 68 | 0.0 | 0.0 | 0.00 | 0.40 | 0.01 | 100 | 1012.5 | |
| 20260905113518 | 68 | 0.0 | 0.0 | 0.00 | 0.40 | 0.01 | 100 | 1012.5 | |
| 20260905112516 | 67 | 0.0 | 0.0 | 0.00 | 0.40 | 0.01 | 100 | 1012.5 | |
| 20260905111516 | 67 | 0.0 | 0.0 | 0.00 | 0.40 | 0.01 | 100 | 1012.4 | |
| 20260905110517 | 68 | 0.0 | 0.0 | 0.00 | 0.40 | 0.01 | 100 | 1012.3 | |
| 20260905105536 | 68 | 0.0 | 0.0 | 0.00 | 0.40 | 0.01 | 100 | 1012.3 | |
| 20260905104537 | 67 | 0.0 | 0.0 | 0.00 | 0.40 | 0.01 | 100 | 1012.1 | |
| 20260905103537 | 67 | 0.0 | 0.0 | 0.00 | 0.40 | 0.01 | 100 | 1012.0 | |
| 20260905102519 | 68 | 0.0 | 0.0 | 0.00 | 0.40 | 0.01 | 100 | 1012.1 | |
| 20260905101517 | 68 | 0.0 | 0.0 | 0.00 | 0.40 | 0.01 | 100 | 1012.0 | |
| 20260905100517 | 68 | 0.0 | 0.0 | 0.01 | 0.40 | 0.01 | 100 | 1011.8 | |
| 20260905095517 | 68 | 0.0 | 0.0 | 0.01 | 0.40 | 0.01 | 100 | 1011.8 | |
| 20260905094516 | 68 | 0.0 | 0.0 | 0.01 | 0.40 | 0.01 | 100 | 1011.8 | |
| 20260905093517 | 68 | 0.0 | 0.0 | 0.01 | 0.40 | 0.01 | 100 | 1011.8 | |
| 20260905092516 | 69 | 0.0 | 0.0 | 0.01 | 0.40 | 0.01 | 100 | 1011.7 | |
| 20260905091536 | 69 | 0.0 | 0.0 | 0.01 | 0.40 | 0.01 | 100 | 1011.7 | |
| 20260905090516 | 69 | 0.0 | 0.0 | 0.00 | 0.39 | 0.00 | 100 | 1011.5 | |
| 20260905085516 | 69 | 0.0 | 0.0 | 0.00 | 0.39 | 0.00 | 100 | 1011.6 | |
| 20260905084516 | 69 | 0.0 | 0.0 | 0.00 | 0.39 | 0.00 | 100 | 1011.6 | |
| 20260905083516 | 69 | 0.0 | 0.0 | 0.00 | 0.39 | 0.00 | 100 | 1011.7 | |
| 20260905082517 | 69 | 0.0 | 0.0 | 0.00 | 0.39 | 0.00 | 100 | 1011.8 | |
| 20260905081516 | 69 | 0.0 | 0.0 | 0.00 | 0.39 | 0.00 | 100 | 1011.9 | |
| 20260905080516 | 70 | 0.0 | 0.0 | 0.00 | 0.39 | 0.00 | 100 | 1012.0 | |
| 20260905075516 | 70 | 0.0 | 0.0 | 0.00 | 0.39 | 0.00 | 100 | 1012.1 | |
| 20260905074517 | 70 | 0.0 | 0.0 | 0.00 | 0.39 | 0.00 | 100 | 1012.3 | |
| 20260905073517 | 70 | 0.0 | 0.0 | 0.00 | 0.39 | 0.00 | 100 | 1012.4 | |
| 20260905072536 | 70 | 0.0 | 0.0 | 0.00 | 0.39 | 0.00 | 100 | 1012.5 | |
| 20260905071536 | 70 | 0.0 | 0.0 | 0.00 | 0.39 | 0.00 | 100 | 1012.5 | |
| 20260905070516 | 70 | 0.0 | 0.0 | 0.00 | 0.39 | 0.00 | 100 | 1012.5 | |
| 20260905065516 | 70 | 0.0 | 0.0 | 0.00 | 0.39 | 0.00 | 100 | 1012.5 | |
| 20260905064516 | 70 | 0.0 | 0.0 | 0.00 | 0.39 | 0.00 | 100 | 1012.7 | |
| 20260905063516 | 70 | 0.0 | 0.0 | 0.00 | 0.39 | 0.00 | 100 | 1012.7 | |
| 20260905062517 | 71 | 0.0 | 0.0 | 0.00 | 0.39 | 0.00 | 100 | 1012.7 | |
| 20260905061516 | 71 | 0.0 | 0.0 | 0.00 | 0.39 | 0.00 | 100 | 1012.9 | |
| 20260905060516 | 71 | 0.0 | 0.9 | 0.00 | 0.39 | 0.00 | 100 | 1013.0 | |
| 20260905055516 | 71 | 0.0 | 0.0 | 0.00 | 0.39 | 0.00 | 100 | 1013.2 | |
| 20260905054516 | 71 | 0.0 | 0.0 | 0.00 | 0.39 | 0.00 | 100 | 1013.4 | |
| 20260905053516 | 71 | 0.0 | 0.0 | 0.00 | 0.39 | 0.00 | 100 | 1013.6 | |
| 20260905052516 | 71 | 0.0 | 0.0 | 0.00 | 0.39 | 0.00 | 100 | 1013.7 | |
| 20260905051536 | 71 | 0.0 | 0.9 | 0.00 | 0.39 | 0.00 | 100 | 1013.8 | |
| 20260905050516 | 71 | 0.0 | 0.0 | 0.00 | 0.39 | 0.00 | 100 | 1014.1 | |
| 20260905045517 | 71 | 0.0 | 0.0 | 0.00 | 0.39 | 0.00 | 100 | 1014.4 | |
| 20260905044517 | 71 | 0.0 | 0.0 | 0.00 | 0.39 | 0.00 | 100 | 1014.4 | |
| 20260905043516 | 71 | 0.0 | 0.0 | 0.00 | 0.39 | 0.00 | 100 | 1014.5 | |
| 20260905042516 | 71 | 0.0 | 0.0 | 0.00 | 0.39 | 0.00 | 100 | 1014.6 | |
| 20260905041516 | 71 | 0.0 | 0.9 | 0.00 | 0.39 | 0.00 | 100 | 1014.6 | |
| 20260905040516 | 71 | 0.0 | 0.0 | 0.00 | 0.39 | 0.00 | 100 | 1014.6 | |
| 20260905035516 | 71 | 0.0 | 0.0 | 0.00 | 0.39 | 0.39 | 100 | 1014.6 | |
| 20260905034516 | 71 | 0.0 | 0.0 | 0.00 | 0.39 | 0.39 | 100 | 1014.7 | |
| 20260905033536 | 71 | 0.0 | 0.0 | 0.00 | 0.39 | 0.39 | 100 | 1014.7 | |
| 20260905032516 | 71 | 0.0 | 0.0 | 0.00 | 0.39 | 0.39 | 100 | 1014.7 | |
| 20260905031516 | 71 | 0.0 | 0.0 | 0.00 | 0.39 | 0.39 | 100 | 1014.6 | |
| 20260905030516 | 72 | 0.0 | 0.9 | 0.00 | 0.39 | 0.39 | 100 | 1014.5 | |
| 20260905025516 | 72 | 0.0 | 0.0 | 0.00 | 0.39 | 0.39 | 100 | 1014.5 | |
| 20260905024516 | 72 | 0.0 | 3.5 | 0.00 | 0.39 | 0.39 | 100 | 1014.6 | |
| 20260905023516 | 72 | 0.0 | 0.0 | 0.00 | 0.39 | 0.39 | 100 | 1014.8 | |
| 20260905022516 | 72 | 0.0 | 0.0 | 0.00 | 0.39 | 0.39 | 100 | 1014.7 | |
| 20260905021516 | 72 | 0.0 | 0.0 | 0.00 | 0.39 | 0.39 | 100 | 1014.8 | |
| 20260905020515 | 72 | 0.0 | 0.9 | 0.00 | 0.39 | 0.39 | 100 | 1014.7 | |
| 20260905015516 | 72 | 0.0 | 0.9 | 0.00 | 0.39 | 0.39 | 100 | 1014.4 | |
| 20260905014515 | 72 | 0.0 | 0.9 | 0.00 | 0.39 | 0.39 | 100 | 1014.5 | |
| 20260905013516 | 72 | 0.0 | 0.9 | 0.00 | 0.39 | 0.39 | 100 | 1014.4 | |
| 20260905012516 | 71 | 0.0 | 0.0 | 0.00 | 0.39 | 0.39 | 100 | 1014.2 | |
| 20260905011516 | 71 | 0.0 | 0.0 | 0.00 | 0.39 | 0.39 | 100 | 1013.8 | |
| 20260905010517 | 71 | 0.0 | 0.0 | 0.00 | 0.39 | 0.39 | 100 | 1013.6 | |
| 20260905005515 | 72 | 0.0 | 0.0 | 0.00 | 0.39 | 0.39 | 100 | 1013.5 | |
| 20260905004516 | 72 | 0.0 | 0.0 | 0.00 | 0.39 | 0.39 | 100 | 1013.7 | |
| 20260905003537 | 72 | 0.0 | 0.0 | 0.00 | 0.39 | 0.39 | 100 | 1013.6 | |
| 20260905002516 | 72 | 0.0 | 0.9 | 0.00 | 0.39 | 0.39 | 100 | 1013.3 | |
| 20260905001515 | 72 | 0.0 | 0.0 | 0.00 | 0.39 | 0.39 | 100 | 1013.4 | |
| 20260905000516 | 72 | 0.0 | 0.0 | 0.01 | 0.39 | 0.39 | 100 | 1012.9 | |
| 20260904235515 | 72 | 0.0 | 0.0 | 0.01 | 0.39 | 0.39 | 100 | 1013.0 | |
| 20260904234516 | 72 | 0.0 | 0.9 | 0.01 | 0.39 | 0.39 | 100 | 1013.3 | |
| 20260904233516 | 72 | 0.0 | 1.7 | 0.03 | 0.39 | 0.39 | 100 | 1013.4 | |
| 20260904232536 | 72 | 0.0 | 2.6 | 0.03 | 0.39 | 0.39 | 100 | 1013.4 | |
| 20260904231515 | 72 | 0.0 | 2.6 | 0.03 | 0.39 | 0.39 | 100 | 1014.4 | |
| 20260904230515 | 72 | 0.0 | 0.9 | 0.11 | 0.38 | 0.38 | 100 | 1014.4 | |
| 20260904225555 | 72 | 0.0 | 0.0 | 0.24 | 0.38 | 0.38 | 99 | 1014.2 | |
| 20260904224516 | 72 | 0.0 | 0.9 | 0.33 | 0.38 | 0.38 | 99 | 1013.8 |